Time;durP1;ratioP1;P1;durP2;ratioP2;P2;SDS_P1;SDS_P2;PMS_P1;PMS_P2;Temp;Humidity;BMP_temperature;BMP_pressure;BME280_temperature;BME280_humidity;BME280_pressure;Samples;Min_cycle;Max_cycle;Signal;HPM_P1;HPM_P2
2023/07/08 00:00:23;;;;;;;13.90;4.97;;;22.20;88.70;;;;;;5024178;28;20056;-59
2023/07/08 00:02:50;;;;;;;6.93;5.10;;;22.10;89.00;;;;;;5037554;28;20571;-59
2023/07/08 00:05:18;;;;;;;9.90;4.30;;;22.20;89.40;;;;;;5014592;28;20135;-59
2023/07/08 00:07:45;;;;;;;16.35;5.35;;;22.20;89.90;;;;;;5036205;28;20053;-59
2023/07/08 00:10:13;;;;;;;11.30;5.10;;;22.20;90.10;;;;;;5039454;28;20048;-59
2023/07/08 00:12:40;;;;;;;9.35;4.82;;;22.20;90.60;;;;;;5035135;28;20179;-60
2023/07/08 00:15:08;;;;;;;11.10;5.22;;;22.10;90.50;;;;;;5036772;28;20143;-59
2023/07/08 00:17:35;;;;;;;9.85;4.70;;;22.10;90.70;;;;;;5036104;28;20053;-58
2023/07/08 00:20:08;;;;;;;11.50;4.97;;;22.10;90.90;;;;;;4696923;28;10000464;-59
2023/07/08 00:22:36;;;;;;;10.82;5.75;;;22.10;91.10;;;;;;5040035;28;20049;-59
2023/07/08 00:25:03;;;;;;;8.10;4.80;;;22.10;91.30;;;;;;5040464;28;20046;-59
2023/07/08 00:27:29;;;;;;;7.40;4.90;;;22.10;91.60;;;;;;5035888;28;20049;-59
2023/07/08 00:29:56;;;;;;;9.65;4.60;;;22.10;91.90;;;;;;5037997;28;20084;-59
2023/07/08 00:32:23;;;;;;;9.60;4.70;;;22.10;92.00;;;;;;5038607;28;20056;-59
2023/07/08 00:34:50;;;;;;;13.15;5.75;;;22.10;92.10;;;;;;5040042;28;20041;-59
2023/07/08 00:37:17;;;;;;;11.95;5.47;;;22.10;92.40;;;;;;5039752;28;20045;-60
2023/07/08 00:39:43;;;;;;;11.55;5.38;;;22.10;92.40;;;;;;5036678;28;20056;-59
2023/07/08 00:42:15;;;;;;;9.32;4.90;;;22.10;92.50;;;;;;5038517;28;20515;-59
2023/07/08 00:44:42;;;;;;;9.27;4.68;;;22.10;92.60;;;;;;5037072;28;20053;-59
2023/07/08 00:47:10;;;;;;;7.00;4.30;;;22.10;92.60;;;;;;5043884;28;20512;-59
2023/07/08 00:49:50;;;;;;;7.72;4.80;;;22.10;92.80;;;;;;5037291;28;20115;-59
2023/07/08 00:52:21;;;;;;;12.35;4.65;;;22.10;93.60;;;;;;5027088;28;20044;-58
2023/07/08 00:54:59;;;;;;;10.82;4.90;;;22.10;93.30;;;;;;5038269;28;20049;-59
2023/07/08 00:57:29;;;;;;;9.00;4.53;;;22.00;93.80;;;;;;5015216;28;20049;-60
2023/07/08 01:00:04;;;;;;;9.13;5.00;;;22.00;93.40;;;;;;5019287;28;20136;-59
2023/07/08 01:02:34;;;;;;;8.80;4.78;;;22.00;93.60;;;;;;5044748;28;20040;-58
2023/07/08 01:05:05;;;;;;;13.13;5.00;;;22.00;93.70;;;;;;5023498;28;20037;-59
2023/07/08 01:07:32;;;;;;;10.52;5.45;;;22.00;93.90;;;;;;5029810;28;20492;-59
2023/07/08 01:10:12;;;;;;;12.32;4.80;;;21.90;94.10;;;;;;5039355;28;20041;-58
2023/07/08 01:12:48;;;;;;;10.95;4.97;;;21.90;94.80;;;;;;5012926;28;20128;-59
2023/07/08 01:15:15;;;;;;;11.88;4.70;;;21.80;94.70;;;;;;5031494;28;20049;-60
2023/07/08 01:17:42;;;;;;;7.75;5.20;;;21.80;94.90;;;;;;5033739;28;20050;-59
2023/07/08 01:20:12;;;;;;;15.35;5.75;;;21.80;95.10;;;;;;5030460;28;20051;-60
2023/07/08 01:22:40;;;;;;;9.27;4.78;;;21.70;95.40;;;;;;5048719;28;20420;-58
2023/07/08 01:25:07;;;;;;;14.57;5.68;;;21.60;95.70;;;;;;5028484;28;20041;-58
2023/07/08 01:27:38;;;;;;;12.95;4.72;;;21.60;96.10;;;;;;5039142;28;20053;-59
2023/07/08 01:30:05;;;;;;;12.02;6.15;;;21.60;96.60;;;;;;5020139;28;20125;-59
2023/07/08 01:32:37;;;;;;;9.70;5.07;;;21.50;96.70;;;;;;5039288;28;20064;-59
2023/07/08 01:35:04;;;;;;;15.15;5.72;;;21.60;97.30;;;;;;5020977;28;20140;-59
2023/07/08 01:37:58;;;;;;;10.35;5.68;;;21.50;97.20;;;;;;5036847;28;20506;-59
2023/07/08 01:40:29;;;;;;;12.88;6.18;;;21.50;98.10;;;;;;5037572;28;20149;-58
2023/07/08 01:42:56;;;;;;;9.10;5.13;;;21.50;98.10;;;;;;5037769;28;20080;-57
2023/07/08 01:45:26;;;;;;;10.85;5.45;;;21.40;98.10;;;;;;5039215;28;20040;-59
2023/07/08 01:48:16;;;;;;;14.40;5.50;;;21.40;98.40;;;;;;5039187;28;20045;-59
2023/07/08 01:51:03;;;;;;;7.50;4.68;;;21.50;99.70;;;;;;5023339;28;20052;-58
2023/07/08 01:53:35;;;;;;;9.82;5.63;;;21.40;99.90;;;;;;5039251;28;20049;-58
2023/07/08 01:56:02;;;;;;;11.43;5.07;;;21.40;99.40;;;;;;5039697;28;20041;-59
2023/07/08 01:58:29;;;;;;;9.40;5.50;;;21.40;99.50;;;;;;5038131;28;20045;-63
2023/07/08 02:00:56;;;;;;;15.25;6.10;;;21.30;99.60;;;;;;5038925;28;20045;-58
2023/07/08 02:03:23;;;;;;;10.20;5.63;;;21.30;99.90;;;;;;5039021;28;20081;-59
2023/07/08 02:05:50;;;;;;;11.48;5.20;;;21.30;99.90;;;;;;5034296;28;20045;-59
2023/07/08 02:08:17;;;;;;;8.88;5.15;;;21.30;99.90;;;;;;5038484;28;20041;-60
2023/07/08 02:10:49;;;;;;;13.57;5.18;;;21.20;99.90;;;;;;5024534;28;20047;-58
2023/07/08 02:13:16;;;;;;;8.93;4.90;;;21.20;99.90;;;;;;5040564;28;20057;-59
2023/07/08 02:15:42;;;;;;;7.57;4.72;;;21.20;99.90;;;;;;5041237;28;20046;-58
2023/07/08 02:18:09;;;;;;;10.48;5.70;;;21.20;99.90;;;;;;5034611;28;20105;-59
2023/07/08 02:20:36;;;;;;;10.07;4.80;;;21.20;99.90;;;;;;4692325;28;10000999;-58
2023/07/08 02:23:03;;;;;;;14.65;5.15;;;21.20;99.90;;;;;;5032670;28;20057;-58
2023/07/08 02:25:30;;;;;;;10.82;5.90;;;21.10;99.90;;;;;;5043634;28;20397;-59
2023/07/08 02:27:57;;;;;;;10.77;5.40;;;21.10;99.90;;;;;;5039458;28;20047;-59
2023/07/08 02:30:24;;;;;;;9.60;5.32;;;21.10;99.90;;;;;;5032085;28;20128;-59
2023/07/08 02:32:57;;;;;;;8.90;5.32;;;21.10;99.90;;;;;;5036614;28;20424;-58
2023/07/08 02:35:26;;;;;;;8.60;4.70;;;21.10;99.90;;;;;;5030390;28;20053;-58
2023/07/08 02:37:53;;;;;;;13.73;5.93;;;21.00;99.90;;;;;;5036348;28;20508;-58
2023/07/08 02:40:21;;;;;;;8.85;5.60;;;21.00;99.90;;;;;;5041436;28;20044;-59
2023/07/08 02:42:48;;;;;;;13.98;5.32;;;21.00;99.90;;;;;;5036711;28;20046;-59
2023/07/08 02:45:15;;;;;;;13.70;5.28;;;21.00;99.90;;;;;;5036215;28;20423;-59
2023/07/08 02:47:42;;;;;;;9.25;5.38;;;21.00;99.90;;;;;;5042167;28;20048;-59
2023/07/08 02:50:09;;;;;;;8.15;5.43;;;20.90;99.90;;;;;;5037209;28;20067;-57
2023/07/08 02:52:36;;;;;;;13.20;5.35;;;21.00;99.90;;;;;;5038741;28;20037;-57
2023/07/08 02:55:03;;;;;;;6.70;4.60;;;21.00;99.90;;;;;;5038001;28;20045;-58
2023/07/08 02:57:30;;;;;;;15.07;5.75;;;21.00;99.90;;;;;;5033348;28;20041;-58
2023/07/08 02:59:57;;;;;;;13.40;4.38;;;21.00;99.90;;;;;;5035854;28;20492;-58
2023/07/08 03:02:24;;;;;;;10.98;5.22;;;21.10;99.90;;;;;;5041849;28;20091;-58
2023/07/08 03:04:51;;;;;;;8.52;4.97;;;21.10;99.90;;;;;;5026243;28;20051;-60
2023/07/08 03:07:17;;;;;;;12.73;5.47;;;21.10;99.90;;;;;;5043293;28;20041;-58
2023/07/08 03:09:44;;;;;;;9.38;4.68;;;21.20;99.90;;;;;;5034441;28;20102;-58
2023/07/08 03:12:11;;;;;;;7.38;4.18;;;21.30;99.90;;;;;;5028177;28;20053;-59
2023/07/08 03:14:38;;;;;;;9.98;5.00;;;21.30;99.90;;;;;;5035719;28;20049;-59
2023/07/08 03:17:05;;;;;;;12.25;4.97;;;21.40;99.90;;;;;;5043149;28;20297;-59
2023/07/08 03:19:32;;;;;;;9.52;5.05;;;21.50;99.90;;;;;;5040072;28;20056;-57
2023/07/08 03:22:02;;;;;;;10.05;4.38;;;21.60;99.90;;;;;;5036362;28;20067;-58
2023/07/08 03:24:29;;;;;;;6.43;4.57;;;21.60;99.90;;;;;;5039350;28;20398;-58
2023/07/08 03:26:57;;;;;;;5.75;3.80;;;21.70;99.90;;;;;;5045249;28;20060;-59
2023/07/08 03:29:24;;;;;;;9.70;4.55;;;21.80;99.90;;;;;;5039989;28;20049;-59
2023/07/08 03:31:51;;;;;;;8.35;4.90;;;21.90;99.90;;;;;;5039058;28;20053;-59
2023/07/08 03:34:17;;;;;;;6.40;3.83;;;21.90;99.90;;;;;;5040470;28;20052;-58
2023/07/08 03:36:48;;;;;;;10.60;3.97;;;21.90;99.90;;;;;;5039849;28;20558;-58
2023/07/08 03:39:16;;;;;;;7.68;4.30;;;22.00;99.90;;;;;;5025795;28;20049;-58
2023/07/08 03:41:43;;;;;;;11.88;5.93;;;22.00;99.90;;;;;;5042102;28;20053;-58
2023/07/08 03:44:11;;;;;;;9.10;4.90;;;22.00;99.90;;;;;;5037389;28;20048;-56
2023/07/08 03:46:39;;;;;;;10.50;4.88;;;22.00;99.90;;;;;;5038812;28;20041;-57
2023/07/08 03:49:06;;;;;;;10.85;4.30;;;22.10;99.90;;;;;;5044761;28;20051;-59
2023/07/08 03:51:34;;;;;;;8.30;4.63;;;22.10;99.90;;;;;;5038083;28;20052;-58
2023/07/08 03:54:02;;;;;;;9.77;4.03;;;22.10;99.90;;;;;;5030546;28;20504;-59
2023/07/08 03:56:29;;;;;;;7.90;4.38;;;22.10;99.90;;;;;;5042136;28;20075;-59
2023/07/08 03:58:56;;;;;;;6.80;4.38;;;22.10;99.90;;;;;;5032634;28;20051;-58
2023/07/08 04:01:23;;;;;;;11.23;4.70;;;22.10;99.90;;;;;;5048773;28;20079;-58
2023/07/08 04:03:55;;;;;;;5.75;4.28;;;22.10;99.90;;;;;;5032944;28;20414;-58
2023/07/08 04:06:22;;;;;;;8.13;4.28;;;22.10;99.90;;;;;;5043562;28;20265;-58
2023/07/08 04:08:49;;;;;;;6.43;4.35;;;22.10;99.90;;;;;;5047593;28;20052;-58
2023/07/08 04:11:20;;;;;;;15.18;4.88;;;22.10;99.90;;;;;;5042240;28;20041;-59
2023/07/08 04:13:47;;;;;;;5.50;4.40;;;22.10;99.90;;;;;;5031005;28;20049;-58
2023/07/08 04:16:45;;;;;;;9.70;4.40;;;22.10;99.90;;;;;;5022736;28;20087;-58
2023/07/08 04:19:14;;;;;;;7.53;4.07;;;22.10;99.90;;;;;;5016841;28;20298;-58
2023/07/08 04:21:42;;;;;;;9.25;4.13;;;22.10;99.90;;;;;;5037835;28;20052;-57
2023/07/08 04:24:13;;;;;;;7.50;4.00;;;22.10;99.90;;;;;;5044791;28;20045;-59
2023/07/08 04:26:40;;;;;;;8.23;4.72;;;22.10;99.90;;;;;;5040306;28;20041;-58
2023/07/08 04:29:13;;;;;;;9.73;4.18;;;22.10;99.90;;;;;;5031911;28;20052;-59
2023/07/08 04:31:41;;;;;;;8.02;4.30;;;22.10;99.90;;;;;;5022684;28;20041;-58
2023/07/08 04:34:08;;;;;;;10.30;5.00;;;22.10;99.90;;;;;;5036342;28;20132;-59
2023/07/08 04:36:35;;;;;;;7.90;3.97;;;22.10;99.90;;;;;;5039199;28;20518;-59
2023/07/08 04:39:03;;;;;;;8.98;4.00;;;22.10;99.90;;;;;;5040981;28;20052;-59
2023/07/08 04:41:30;;;;;;;7.03;3.90;;;22.10;99.90;;;;;;5038770;28;20124;-60
2023/07/08 04:43:57;;;;;;;8.60;4.75;;;22.10;99.90;;;;;;5022578;28;20068;-60
2023/07/08 04:46:38;;;;;;;6.25;3.78;;;22.10;99.90;;;;;;5037167;28;20059;-60
2023/07/08 04:49:06;;;;;;;10.05;4.50;;;22.10;99.90;;;;;;5038597;28;20098;-59
2023/07/08 04:51:33;;;;;;;9.60;4.25;;;22.00;99.90;;;;;;5040615;28;20037;-59
2023/07/08 04:53:59;;;;;;;11.25;4.75;;;22.10;99.90;;;;;;5040250;28;20431;-59
2023/07/08 04:56:36;;;;;;;7.50;4.25;;;22.10;99.90;;;;;;5034940;28;20060;-59
2023/07/08 04:59:03;;;;;;;11.55;4.10;;;22.10;99.90;;;;;;5040580;28;20045;-59
2023/07/08 05:01:30;;;;;;;7.90;4.30;;;22.10;99.90;;;;;;5006547;28;20040;-59
2023/07/08 05:03:57;;;;;;;9.20;4.50;;;22.10;99.90;;;;;;5040789;28;20049;-59
2023/07/08 05:06:24;;;;;;;9.02;4.28;;;22.20;99.90;;;;;;5026613;28;20136;-59
2023/07/08 05:08:51;;;;;;;9.80;5.20;;;22.20;99.90;;;;;;5041084;28;20045;-59
2023/07/08 05:11:17;;;;;;;6.53;4.15;;;22.20;99.90;;;;;;5031813;28;20112;-59
2023/07/08 05:13:44;;;;;;;10.20;4.22;;;22.20;99.90;;;;;;5036454;28;20107;-59
2023/07/08 05:16:11;;;;;;;8.90;4.47;;;22.20;99.90;;;;;;5045224;28;20479;-59
2023/07/08 05:18:38;;;;;;;8.48;3.97;;;22.30;99.90;;;;;;5041206;28;20051;-59
2023/07/08 05:21:05;;;;;;;6.68;3.55;;;22.30;99.90;;;;;;5033029;28;20080;-58
2023/07/08 05:23:32;;;;;;;10.77;5.40;;;22.30;99.90;;;;;;5037213;28;20046;-60
2023/07/08 05:26:00;;;;;;;6.63;4.05;;;22.30;99.90;;;;;;5043506;28;20098;-60
2023/07/08 05:28:27;;;;;;;9.02;3.90;;;22.40;99.90;;;;;;5040041;28;20077;-60
2023/07/08 05:30:55;;;;;;;12.90;4.00;;;22.40;99.90;;;;;;5047454;28;20404;-60
2023/07/08 05:33:26;;;;;;;8.00;4.68;;;22.40;99.90;;;;;;5039982;28;20067;-59
2023/07/08 05:35:54;;;;;;;8.20;4.15;;;22.40;99.90;;;;;;5039465;28;20045;-59
2023/07/08 05:38:20;;;;;;;10.65;4.40;;;22.50;99.90;;;;;;5037520;28;20052;-60
2023/07/08 05:40:51;;;;;;;6.82;3.80;;;22.50;99.90;;;;;;5046277;28;20045;-60
2023/07/08 05:43:18;;;;;;;9.43;4.13;;;22.50;99.90;;;;;;5028013;28;20045;-58
2023/07/08 05:45:45;;;;;;;8.23;3.65;;;22.60;99.90;;;;;;5037057;28;20151;-60
2023/07/08 05:48:27;;;;;;;8.45;3.97;;;22.60;99.90;;;;;;5038975;28;20514;-60
2023/07/08 05:50:55;;;;;;;9.73;3.78;;;22.70;99.90;;;;;;5039339;28;20503;-60
2023/07/08 05:53:21;;;;;;;8.82;3.13;;;22.70;99.90;;;;;;5037955;28;20044;-58
2023/07/08 05:55:48;;;;;;;7.82;4.40;;;22.80;99.90;;;;;;5044394;28;20053;-59
2023/07/08 05:58:15;;;;;;;7.63;3.30;;;22.80;99.90;;;;;;5042526;28;20048;-60
2023/07/08 06:00:56;;;;;;;8.15;3.53;;;22.90;99.90;;;;;;5045854;28;20045;-59
2023/07/08 06:03:24;;;;;;;7.53;3.60;;;22.90;99.90;;;;;;5042503;28;20081;-59
2023/07/08 06:05:51;;;;;;;6.50;4.15;;;23.00;99.90;;;;;;5040332;28;20131;-59
2023/07/08 06:08:17;;;;;;;16.02;4.07;;;23.00;99.90;;;;;;5029872;28;20045;-59
2023/07/08 06:10:44;;;;;;;8.32;4.35;;;23.10;99.90;;;;;;5040232;28;20095;-59
2023/07/08 06:13:12;;;;;;;11.05;3.63;;;23.10;99.90;;;;;;5030277;28;20046;-59
2023/07/08 06:15:39;;;;;;;7.32;3.95;;;23.20;99.90;;;;;;5035129;28;20103;-60
2023/07/08 06:18:06;;;;;;;11.25;4.32;;;23.20;99.90;;;;;;5042923;28;20127;-59
2023/07/08 06:20:33;;;;;;;8.60;3.35;;;23.30;99.90;;;;;;5039426;28;20044;-58
2023/07/08 06:23:00;;;;;;;8.32;3.60;;;23.40;99.90;;;;;;5032100;28;20488;-58
2023/07/08 06:25:27;;;;;;;9.93;3.78;;;23.50;99.90;;;;;;5035604;28;20099;-59
2023/07/08 06:27:54;;;;;;;9.18;3.80;;;23.50;99.90;;;;;;5041259;28;20103;-59
2023/07/08 06:30:23;;;;;;;8.10;4.85;;;23.50;99.90;;;;;;5039205;28;20053;-59
2023/07/08 06:32:51;;;;;;;5.88;3.42;;;23.50;99.90;;;;;;5039732;28;20077;-59
2023/07/08 06:35:18;;;;;;;13.50;4.05;;;23.60;99.90;;;;;;5036573;28;20049;-59
2023/07/08 06:37:44;;;;;;;9.95;3.53;;;23.60;99.90;;;;;;5038393;28;20061;-59
2023/07/08 06:40:12;;;;;;;11.13;3.47;;;23.60;99.90;;;;;;5035401;28;20493;-59
2023/07/08 06:42:38;;;;;;;8.93;3.58;;;23.60;99.90;;;;;;5036665;28;20506;-59
2023/07/08 06:45:06;;;;;;;8.00;4.15;;;23.70;99.90;;;;;;5040603;28;20126;-59
2023/07/08 06:47:33;;;;;;;11.48;4.55;;;23.70;99.90;;;;;;5038638;28;20630;-58
2023/07/08 06:50:00;;;;;;;8.40;4.47;;;23.80;99.90;;;;;;5032771;28;20049;-58
2023/07/08 06:52:26;;;;;;;10.13;4.22;;;23.90;99.90;;;;;;5034993;28;20472;-58
2023/07/08 06:54:53;;;;;;;12.25;4.28;;;23.90;99.90;;;;;;5047126;28;20049;-58
2023/07/08 06:57:20;;;;;;;8.35;4.25;;;24.00;99.90;;;;;;5043412;28;20056;-61
2023/07/08 06:59:47;;;;;;;6.30;4.20;;;23.90;99.90;;;;;;5033770;28;20056;-58
2023/07/08 07:02:13;;;;;;;12.88;3.78;;;24.00;99.90;;;;;;5039023;28;20377;-58
2023/07/08 07:04:40;;;;;;;11.98;4.63;;;24.00;99.90;;;;;;5047885;28;20577;-59
2023/07/08 07:07:07;;;;;;;10.90;4.40;;;24.00;99.90;;;;;;5042718;28;20555;-59
2023/07/08 07:09:34;;;;;;;11.23;4.03;;;24.10;99.90;;;;;;5036120;28;20149;-58
2023/07/08 07:12:01;;;;;;;10.98;3.97;;;24.20;99.90;;;;;;5040497;28;20049;-57
2023/07/08 07:14:28;;;;;;;14.13;4.18;;;24.20;99.90;;;;;;5027185;28;20045;-58
2023/07/08 07:16:58;;;;;;;6.65;3.72;;;24.30;99.90;;;;;;5037548;28;20403;-57
2023/07/08 07:19:34;;;;;;;11.18;4.75;;;24.40;99.90;;;;;;5038005;28;20041;-59
2023/07/08 07:22:01;;;;;;;10.45;4.13;;;24.50;99.90;;;;;;5041648;28;20049;-54
2023/07/08 07:24:28;;;;;;;7.80;3.78;;;24.50;99.90;;;;;;5037263;28;20064;-58
2023/07/08 07:26:55;;;;;;;8.80;4.25;;;24.50;99.90;;;;;;5039733;28;20072;-57
2023/07/08 07:29:22;;;;;;;16.40;4.80;;;24.60;99.90;;;;;;5038805;28;20045;-57
2023/07/08 07:31:51;;;;;;;5.70;3.65;;;24.60;99.90;;;;;;5042546;28;20531;-59
2023/07/08 07:34:18;;;;;;;10.60;3.53;;;24.60;99.90;;;;;;5045735;28;20057;-58
2023/07/08 07:36:45;;;;;;;8.25;4.05;;;24.70;99.90;;;;;;5040878;28;20045;-59
2023/07/08 07:39:12;;;;;;;8.15;3.70;;;24.70;99.90;;;;;;5042107;28;20042;-59
2023/07/08 07:41:38;;;;;;;8.65;4.13;;;24.80;99.90;;;;;;4683275;28;10000068;-59
2023/07/08 07:44:05;;;;;;;13.35;4.15;;;24.80;99.90;;;;;;5034171;28;20245;-59
2023/07/08 07:46:32;;;;;;;9.25;3.60;;;24.90;99.90;;;;;;5041584;28;20047;-59
2023/07/08 07:48:59;;;;;;;5.95;3.13;;;25.00;99.90;;;;;;5035399;28;20154;-63
2023/07/08 07:51:26;;;;;;;15.10;4.60;;;25.00;99.90;;;;;;5025907;28;20111;-59
2023/07/08 07:53:53;;;;;;;8.20;4.35;;;25.00;99.90;;;;;;5030592;28;20049;-59
2023/07/08 07:56:20;;;;;;;8.68;3.90;;;25.00;99.90;;;;;;5038854;28;20065;-58
2023/07/08 07:58:48;;;;;;;8.43;3.67;;;25.10;99.90;;;;;;5034025;28;20492;-59
2023/07/08 08:01:15;;;;;;;13.27;4.50;;;25.20;99.90;;;;;;5029358;28;20522;-58
2023/07/08 08:03:42;;;;;;;9.77;3.65;;;25.10;99.90;;;;;;5036080;28;20052;-57
2023/07/08 08:06:09;;;;;;;10.88;4.18;;;25.10;99.90;;;;;;5031699;28;20497;-58
2023/07/08 08:08:36;;;;;;;7.07;3.40;;;25.10;99.90;;;;;;5036439;28;20045;-58
2023/07/08 08:11:04;;;;;;;13.38;4.40;;;25.10;99.90;;;;;;5037324;28;20140;-58
2023/07/08 08:13:31;;;;;;;8.18;4.15;;;25.10;99.90;;;;;;5036457;28;20045;-59
2023/07/08 08:15:58;;;;;;;6.93;3.72;;;25.10;99.90;;;;;;5048541;28;20453;-57
2023/07/08 08:18:26;;;;;;;8.15;3.70;;;25.10;99.90;;;;;;5039936;28;20128;-52
2023/07/08 08:20:53;;;;;;;8.88;3.42;;;25.00;99.90;;;;;;5046349;28;20392;-57
2023/07/08 08:23:19;;;;;;;8.82;4.32;;;25.00;99.90;;;;;;5043596;28;20049;-58
2023/07/08 08:25:46;;;;;;;10.82;4.43;;;25.00;99.90;;;;;;5037348;28;20382;-57
2023/07/08 08:28:13;;;;;;;15.30;5.43;;;25.00;99.90;;;;;;5043923;28;20049;-56
2023/07/08 08:30:40;;;;;;;15.80;4.80;;;25.00;99.90;;;;;;5041380;28;20053;-56
2023/07/08 08:33:07;;;;;;;9.73;4.22;;;25.00;99.90;;;;;;5028777;28;20096;-57
2023/07/08 08:35:33;;;;;;;9.40;4.43;;;25.10;99.90;;;;;;5037820;28;20091;-57
2023/07/08 08:38:02;;;;;;;8.63;4.03;;;25.10;99.90;;;;;;5027693;28;20045;-56
2023/07/08 08:40:29;;;;;;;15.35;4.78;;;25.00;99.90;;;;;;5033139;28;20567;-55
2023/07/08 08:43:10;;;;;;;9.13;4.38;;;25.10;99.90;;;;;;5024046;28;20477;-57
2023/07/08 08:45:42;;;;;;;10.60;4.00;;;24.90;99.90;;;;;;5011010;28;20052;-57
2023/07/08 08:48:11;;;;;;;7.22;4.20;;;24.90;99.90;;;;;;5028129;28;20146;-57
2023/07/08 08:50:55;;;;;;;10.75;4.90;;;24.80;99.90;;;;;;5019148;28;20448;-57
2023/07/08 08:53:25;;;;;;;7.85;4.20;;;24.80;99.90;;;;;;5026668;28;20098;-56
2023/07/08 08:56:14;;;;;;;9.40;4.20;;;24.80;99.90;;;;;;5024754;28;20061;-56
2023/07/08 08:58:44;;;;;;;13.15;4.57;;;24.80;99.90;;;;;;5028567;28;20053;-55
2023/07/08 09:01:15;;;;;;;9.85;4.10;;;24.80;99.90;;;;;;5009460;28;20059;-56
2023/07/08 09:04:03;;;;;;;13.50;4.40;;;24.90;99.90;;;;;;5016506;28;20132;-57
2023/07/08 09:06:32;;;;;;;10.35;4.85;;;25.00;99.90;;;;;;5000656;28;20049;-56
2023/07/08 09:09:16;;;;;;;23.73;4.25;;;25.00;99.90;;;;;;5024637;28;20056;-57
2023/07/08 09:11:57;;;;;;;7.35;4.45;;;25.00;99.90;;;;;;5006314;28;20049;-58
2023/07/08 09:14:26;;;;;;;7.38;4.15;;;25.00;99.90;;;;;;5010594;28;20414;-57
2023/07/08 09:17:14;;;;;;;13.05;4.50;;;25.20;99.90;;;;;;5031233;28;20099;-57
2023/07/08 09:19:43;;;;;;;9.15;4.13;;;25.30;99.90;;;;;;5028202;28;20052;-57
2023/07/08 09:22:25;;;;;;;9.05;4.55;;;25.30;99.90;;;;;;5027279;28;20111;-58
2023/07/08 09:25:05;;;;;;;9.90;4.55;;;25.50;99.90;;;;;;5010248;28;20038;-55
2023/07/08 09:27:32;;;;;;;9.23;4.18;;;25.50;99.90;;;;;;5009973;28;20056;-55
2023/07/08 09:29:59;;;;;;;11.35;4.75;;;25.70;99.90;;;;;;5027534;28;20061;-58
2023/07/08 09:32:27;;;;;;;10.40;4.82;;;25.80;99.90;;;;;;5032827;28;20053;-57
2023/07/08 09:35:04;;;;;;;10.57;5.53;;;25.80;99.90;;;;;;5009977;28;20584;-55
2023/07/08 09:37:32;;;;;;;17.27;6.32;;;25.80;99.90;;;;;;5032230;28;20515;-55
2023/07/08 09:40:02;;;;;;;14.18;6.55;;;26.00;99.90;;;;;;5040927;28;20087;-54
2023/07/08 09:42:31;;;;;;;16.67;7.82;;;26.00;99.90;;;;;;5036381;28;20343;-56
2023/07/08 09:45:01;;;;;;;12.60;6.88;;;26.00;99.90;;;;;;5028830;28;20054;-55
2023/07/08 09:47:32;;;;;;;15.10;6.90;;;26.10;99.90;;;;;;5032821;28;20111;-55
2023/07/08 09:50:00;;;;;;;15.48;7.60;;;26.10;99.90;;;;;;5038395;28;20051;-55
2023/07/08 09:52:29;;;;;;;11.38;5.00;;;26.10;99.90;;;;;;5035575;28;20048;-55
2023/07/08 09:54:56;;;;;;;9.15;6.03;;;26.20;99.90;;;;;;5024318;28;20083;-58
2023/07/08 09:57:30;;;;;;;12.57;5.78;;;26.30;99.90;;;;;;5033667;28;20052;-58
2023/07/08 10:00:02;;;;;;;14.75;5.15;;;26.40;99.20;;;;;;5014277;28;20059;-58
2023/07/08 10:02:45;;;;;;;8.82;4.68;;;26.40;99.00;;;;;;5018623;28;20071;-58
2023/07/08 10:05:24;;;;;;;8.15;4.30;;;26.30;98.60;;;;;;5036888;28;20084;-56
2023/07/08 10:07:53;;;;;;;8.35;3.70;;;26.40;98.80;;;;;;5033842;28;20049;-57
2023/07/08 10:10:41;;;;;;;7.70;3.63;;;26.50;98.60;;;;;;5030291;28;20488;-56
2023/07/08 10:13:22;;;;;;;6.45;3.38;;;26.50;97.90;;;;;;5033174;28;20045;-56
2023/07/08 10:15:57;;;;;;;8.27;4.03;;;26.60;97.70;;;;;;5032103;28;20053;-56
2023/07/08 10:18:28;;;;;;;11.40;3.38;;;26.70;97.90;;;;;;5020921;28;20829;-57
2023/07/08 10:21:29;;;;;;;6.40;3.58;;;26.90;97.20;;;;;;5018856;28;20079;-56
2023/07/08 10:24:04;;;;;;;6.45;2.97;;;27.10;96.50;;;;;;5027493;28;20452;-60
2023/07/08 10:26:32;;;;;;;4.82;2.90;;;27.10;96.50;;;;;;5032084;28;20532;-57
2023/07/08 10:29:17;;;;;;;5.65;3.25;;;27.00;96.20;;;;;;5031013;28;20057;-57
2023/07/08 10:32:04;;;;;;;6.65;3.05;;;27.00;96.20;;;;;;5040166;28;20052;-60
2023/07/08 10:34:54;;;;;;;7.07;2.80;;;26.80;96.20;;;;;;5036332;28;20151;-59
2023/07/08 10:37:59;;;;;;;10.52;3.45;;;26.60;96.00;;;;;;4996991;28;20049;-57
2023/07/08 10:40:48;;;;;;;7.15;3.13;;;26.50;96.00;;;;;;4961151;28;20171;-56
2023/07/08 10:43:51;;;;;;;6.03;3.30;;;26.50;96.20;;;;;;5028609;28;20059;-57
2023/07/08 10:46:26;;;;;;;10.83;3.27;;;26.30;96.10;;;;;;5018336;28;20110;-56
2023/07/08 10:49:19;;;;;;;10.38;3.38;;;26.20;96.80;;;;;;5019779;28;20313;-58
2023/07/08 10:52:04;;;;;;;8.05;3.72;;;26.10;96.70;;;;;;5021585;28;20049;-58
2023/07/08 10:54:50;;;;;;;12.73;4.00;;;26.10;97.00;;;;;;4998746;28;20045;-59
2023/07/08 10:57:35;;;;;;;8.48;3.28;;;26.20;97.00;;;;;;5021747;28;20061;-59
2023/07/08 11:00:13;;;;;;;5.78;3.72;;;26.10;96.90;;;;;;5027925;28;20045;-56
2023/07/08 11:02:52;;;;;;;6.68;2.95;;;26.00;97.40;;;;;;5030357;28;20507;-58
2023/07/08 11:05:35;;;;;;;12.25;3.35;;;25.90;97.70;;;;;;5032203;28;20053;-59
2023/07/08 11:08:26;;;;;;;7.82;2.60;;;25.90;97.80;;;;;;5031956;28;20045;-56
2023/07/08 11:10:58;;;;;;;6.03;2.70;;;25.80;97.20;;;;;;5014571;28;20046;-54
2023/07/08 11:13:44;;;;;;;11.43;3.08;;;25.80;97.90;;;;;;5019307;28;20119;-58
2023/07/08 11:16:23;;;;;;;12.48;3.40;;;25.60;98.80;;;;;;5047044;28;20135;-55
2023/07/08 11:19:03;;;;;;;6.43;3.38;;;25.50;99.60;;;;;;5028840;28;20085;-57
2023/07/08 11:21:39;;;;;;;9.57;3.40;;;25.40;99.90;;;;;;5019693;28;20044;-59
2023/07/08 11:24:31;;;;;;;7.10;3.53;;;25.40;99.90;;;;;;5013155;28;20099;-58
2023/07/08 11:27:00;;;;;;;8.60;2.88;;;25.50;99.90;;;;;;5002768;28;20123;-57
2023/07/08 11:29:42;;;;;;;8.27;2.95;;;25.50;99.90;;;;;;5018109;28;20496;-56
2023/07/08 11:32:12;;;;;;;5.68;3.10;;;25.50;99.70;;;;;;5021510;28;20172;-57
2023/07/08 11:34:39;;;;;;;9.63;3.15;;;25.50;99.90;;;;;;5013705;28;20049;-57
2023/07/08 11:37:06;;;;;;;6.75;4.18;;;25.50;99.70;;;;;;5013045;28;20059;-57
2023/07/08 11:39:38;;;;;;;5.22;2.63;;;25.50;99.50;;;;;;5007074;28;20508;-57
2023/07/08 11:42:25;;;;;;;4.57;2.60;;;25.40;99.00;;;;;;5033082;28;20067;-58
2023/07/08 11:44:57;;;;;;;6.68;2.67;;;25.40;98.90;;;;;;5026192;28;20041;-58
2023/07/08 11:47:35;;;;;;;5.10;2.35;;;25.30;99.00;;;;;;5037089;28;20148;-57
2023/07/08 11:50:02;;;;;;;5.95;2.65;;;25.30;99.10;;;;;;5022948;28;20080;-57
2023/07/08 11:52:29;;;;;;;7.00;3.42;;;25.40;98.90;;;;;;5021431;28;20123;-57
2023/07/08 11:55:05;;;;;;;5.45;2.60;;;25.40;98.90;;;;;;5026461;28;20049;-57
2023/07/08 11:57:37;;;;;;;4.63;2.67;;;25.30;98.80;;;;;;5024195;28;20133;-57
2023/07/08 12:00:32;;;;;;;7.53;3.45;;;25.30;98.90;;;;;;5019355;28;20150;-57
2023/07/08 12:03:18;;;;;;;8.63;3.03;;;25.30;99.20;;;;;;5037987;28;20563;-58
2023/07/08 12:05:46;;;;;;;7.80;2.58;;;25.30;99.10;;;;;;5020116;28;20045;-56
2023/07/08 12:08:14;;;;;;;5.63;3.15;;;25.30;98.90;;;;;;5038246;28;20050;-57
2023/07/08 12:10:52;;;;;;;6.35;3.13;;;25.30;99.20;;;;;;5032431;28;20054;-61
2023/07/08 12:13:21;;;;;;;5.43;3.35;;;25.30;99.60;;;;;;5034962;28;20103;-56
2023/07/08 12:15:48;;;;;;;6.40;2.75;;;25.30;99.90;;;;;;5041593;28;20203;-56
2023/07/08 12:18:23;;;;;;;7.40;3.35;;;25.20;99.90;;;;;;5039022;28;20050;-56
2023/07/08 12:21:08;;;;;;;8.05;3.50;;;25.20;99.90;;;;;;5030510;28;20099;-57
2023/07/08 12:23:35;;;;;;;7.15;3.42;;;25.00;99.90;;;;;;5016925;28;20037;-54
2023/07/08 12:26:04;;;;;;;8.02;3.83;;;25.00;99.90;;;;;;5042513;28;20051;-58
2023/07/08 12:28:31;;;;;;;9.63;3.40;;;24.90;99.90;;;;;;5021255;28;20055;-58
2023/07/08 12:30:59;;;;;;;7.95;3.72;;;24.70;99.90;;;;;;5028767;28;20049;-56
2023/07/08 12:33:32;;;;;;;10.10;3.83;;;24.70;99.90;;;;;;5033986;28;20108;-55
2023/07/08 12:36:02;;;;;;;10.37;3.70;;;24.70;99.90;;;;;;5025543;28;20059;-56
2023/07/08 12:38:35;;;;;;;5.97;3.00;;;24.60;99.90;;;;;;5011160;28;20322;-58
2023/07/08 12:41:05;;;;;;;6.23;3.07;;;24.60;99.90;;;;;;4995463;28;20053;-58
2023/07/08 12:43:32;;;;;;;5.65;3.08;;;24.60;99.90;;;;;;5026112;28;20282;-56
2023/07/08 12:45:59;;;;;;;7.18;3.20;;;24.40;99.90;;;;;;5041904;28;20057;-57
2023/07/08 12:48:32;;;;;;;9.95;4.50;;;24.30;99.90;;;;;;5026621;28;20049;-58
2023/07/08 12:50:59;;;;;;;7.57;4.28;;;24.30;99.90;;;;;;5012249;28;20065;-59
2023/07/08 12:53:26;;;;;;;7.10;3.47;;;24.00;99.90;;;;;;5038392;28;20041;-58
2023/07/08 12:55:54;;;;;;;9.38;3.72;;;23.70;99.90;;;;;;5042936;28;20060;-58
2023/07/08 12:58:27;;;;;;;9.63;3.92;;;23.30;99.90;;;;;;5038848;28;20049;-56
2023/07/08 13:00:55;;;;;;;8.75;3.40;;;23.10;99.90;;;;;;5020357;28;20072;-58